UNKLUIII

Guest
Details From UNKL - Yemelyanovo
To UIII - Irkutsk
Flight Number -
Tags Generated
Created
Modified
Stats Distance 479 nm / 886 km
Max Altitude 0 ft / 0 m
Waypoints 3
Social Downloads 2
Likes 0
Share VATSIM

Download

Looking for another format? Having issues loading an existing format? Contact us
Advertisement - Login to hide

Notes

Generated

Route

UNKL C UIII

ID Type Via Altitude Latitude Longitude Leg Dist Tot Dist Heading (true) Name
O UNKL APT - 0 ft / 0 m 56.17948˚ 92.46587˚ - 0 nm - -
C NDB - 0 ft / 0 m 52.27483˚ 104.36334˚ 478 nm 478 nm 114° / 124° Irkutsk NDB
O UIII APT - 0 ft / 0 m 52.27217˚ 104.37436˚ 0 nm 478 nm 112° / 112° -

Altitude Profile

Advertisement - Login to hide

Weather


0- 5 10 15 20 25 30 35+ Temperature / ° C

Clouds and Precipitation
Forecast for 2017-12-16 00:00 UTC. Updated an hour ago

Ground ~20,000 ft ~40,000 ft Winds

UNKL

Details ICAO UNKL (KJA)
Name YEMELYANOVO
Region Russia
Timezone Asia/Krasnoyarsk (UTC+7.0)
Stats Elevation 942 ft / 287 m (AMSL)
Location 56.172946° 92.493276°
Runways 1
Magnetic Variation 4.123° E

METAR

UNKL 152030Z 26007MPS 9999 DRSN NSC M06/M14 Q1036 R29/810155 NOSIG RMK QFE751

Decode

TAF

TAF TAF UNKL 152000Z 1521/1621 26007G12MPS 5000 -SHSN BLSN SCT020CB TEMPO 1521/1524 26012G18MPS 2500 -SHSN BLSN BKN013CB TEMPO 1600/1615 27012G19MPS 1000 SHSN BLSN VV004

Decode

Departure Runways

ID Width Length Bearing (true) Bearing (mag) Surface Threshold Offset Overrun Length
11 197 ft / 60 m 12,113 ft / 3,692 m 113.16° 109.04° Asphalt 0 ft / 0 m 235 ft / 72 m
29 197 ft / 60 m 12,113 ft / 3,692 m 293.21° 289.09° Asphalt 0 ft / 0 m 215 ft / 66 m

UIII

Details ICAO UIII (IKT)
Name Irkutsk
Region Russia
Timezone Asia/Irkutsk (UTC+8.0)
Stats Elevation 1,675 ft / 511 m (AMSL)
Location 52.266437° 104.395694°
Runways 1
Magnetic Variation 3.761° W

METAR

UIII 152030Z 15003MPS 9999 SCT050CB M12/M14 Q1034 R12/490535 NOSIG RMK QFE733/0977

Decode

TAF

TAF UIII 152000Z 1521/1621 22003MPS 3100 -SHSN BKN011CB TEMPO 1521/1602 30007MPS 1100 SHSN DRSN BKN005CB BECMG 1602/1603 30007MPS TEMPO 1602/1618 0900 +SHSN DRSN VV005

Decode

Destination Runways

ID Width Length Bearing (true) Bearing (mag) Surface Threshold Offset Overrun Length
12 148 ft / 45 m 10,408 ft / 3,172 m 113.68° 117.44° Concrete 1,312 ft / 400 m 266 ft / 81 m
30 148 ft / 45 m 10,408 ft / 3,172 m 293.72° 297.48° Concrete 1,178 ft / 359 m 1,316 ft / 401 m

Approach Navaids

Runway Type Ident Frequency Range Bearing (true) Bearing (mag) Slope Elevation
12 Localiser ICN 111.30 MHz 18 nm / 33 km 113.46° 117.22° - 1,675 ft / 511 m (AMSL)
12 Glidescope ICN 111.30 MHz 10 nm / 19 km 113.70° 117.46° 3.30° 1,675 ft / 511 m (AMSL)
30 Localiser IIR 110.30 MHz 18 nm / 33 km 293.46° 297.22° - 1,675 ft / 511 m (AMSL)
30 Glidescope IIR 110.30 MHz 10 nm / 19 km 293.70° 297.46° 3.30° 1,675 ft / 511 m (AMSL)

Popular Alternatives